WAT89 ENSR-ENHF
Flight info
| Callsign | WAT89 |
|---|---|
| Flight time | 0h 27m |
| Altitude | 15000 |
| Route | UBELO |
| Aircraft | B60T/L-SDFGRY/C |
Departure
| Time | 2026-04-25 15:58 |
|---|---|
| Airport | Sørkjosen Airport (ENSR) |
Arrival
| Time | 2026-04-25 16:25 |
|---|---|
| Airport | Hammerfest Airport (ENHF) |
| Time | Latitude | Longitude | Altitude | Speed | Heading |
|---|---|---|---|---|---|
| 2026-04-25 15:44 | 69.78540 | 20.95901 | 15 ft | 0 kts | 334° |
| 2026-04-25 15:55 | 69.78542 | 20.95898 | 15 ft | 3 kts | 334° |
| 2026-04-25 15:56 | 69.78564 | 20.95869 | 15 ft | 6 kts | 338° |
| 2026-04-25 15:56 | 69.78606 | 20.96025 | 15 ft | 8 kts | 98° |
| 2026-04-25 15:56 | 69.78585 | 20.96084 | 15 ft | 7 kts | 152° |
| 2026-04-25 15:56 | 69.78502 | 20.96198 | 16 ft | 19 kts | 156° |
| 2026-04-25 15:57 | 69.78372 | 20.96384 | 19 ft | 14 kts | 149° |
| 2026-04-25 15:57 | 69.78324 | 20.96451 | 20 ft | 0 kts | 233° |
| 2026-04-25 15:57 | 69.78342 | 20.96412 | 20 ft | 11 kts | 15° |
| 2026-04-25 15:57 | 69.78358 | 20.96409 | 20 ft | 0 kts | 334° |
| 2026-04-25 15:58 | 69.78453 | 20.96270 | 17 ft | 57 kts | 333° |
| 2026-04-25 15:58 | 69.79064 | 20.95503 | 230 ft | 117 kts | 336° |
| 2026-04-25 15:58 | 69.79902 | 20.94651 | 971 ft | 136 kts | 336° |
| 2026-04-25 15:59 | 69.80889 | 20.94135 | 1736 ft | 154 kts | 360° |
| 2026-04-25 15:59 | 69.81935 | 20.95076 | 2540 ft | 161 kts | 26° |
| 2026-04-25 15:59 | 69.82855 | 20.96656 | 3534 ft | 151 kts | 22° |
| 2026-04-25 15:59 | 69.83841 | 20.97556 | 4429 ft | 149 kts | 11° |
| 2026-04-25 16:00 | 69.84849 | 20.98459 | 5291 ft | 153 kts | 15° |
| 2026-04-25 16:00 | 69.85512 | 20.99141 | 5883 ft | 152 kts | 16° |
| 2026-04-25 16:00 | 69.86835 | 21.00538 | 7029 ft | 150 kts | 17° |
| 2026-04-25 16:00 | 69.87809 | 21.01576 | 7876 ft | 150 kts | 17° |
| 2026-04-25 16:01 | 69.88910 | 21.02737 | 8016 ft | 187 kts | 18° |
| 2026-04-25 16:01 | 69.90203 | 21.04137 | 8014 ft | 206 kts | 18° |
| 2026-04-25 16:01 | 69.91580 | 21.05629 | 8006 ft | 215 kts | 18° |
| 2026-04-25 16:01 | 69.92978 | 21.07140 | 7999 ft | 210 kts | 18° |
| 2026-04-25 16:02 | 69.94323 | 21.08581 | 7998 ft | 202 kts | 18° |
| 2026-04-25 16:02 | 69.95633 | 21.09985 | 7992 ft | 199 kts | 18° |
| 2026-04-25 16:02 | 69.96931 | 21.11383 | 7987 ft | 199 kts | 18° |
| 2026-04-25 16:02 | 69.98206 | 21.12757 | 7982 ft | 198 kts | 18° |
| 2026-04-25 16:03 | 69.99491 | 21.14148 | 7979 ft | 197 kts | 18° |
| 2026-04-25 16:03 | 70.00773 | 21.15535 | 7976 ft | 196 kts | 18° |
| 2026-04-25 16:03 | 70.02054 | 21.16924 | 7974 ft | 196 kts | 18° |
| 2026-04-25 16:03 | 70.03330 | 21.18307 | 7971 ft | 196 kts | 18° |
| 2026-04-25 16:04 | 70.04616 | 21.19705 | 7967 ft | 196 kts | 18° |
| 2026-04-25 16:04 | 70.05896 | 21.21097 | 7965 ft | 196 kts | 18° |
| 2026-04-25 16:04 | 70.06995 | 21.23416 | 7966 ft | 201 kts | 50° |
| 2026-04-25 16:04 | 70.07810 | 21.26750 | 7971 ft | 201 kts | 50° |
| 2026-04-25 16:05 | 70.08673 | 21.29979 | 7973 ft | 201 kts | 48° |
| 2026-04-25 16:05 | 70.09548 | 21.33197 | 7974 ft | 202 kts | 48° |
| 2026-04-25 16:05 | 70.11286 | 21.39674 | 7969 ft | 202 kts | 49° |
| 2026-04-25 16:06 | 70.12141 | 21.42868 | 7970 ft | 202 kts | 49° |
| 2026-04-25 16:06 | 70.13010 | 21.46122 | 7967 ft | 203 kts | 49° |
| 2026-04-25 16:06 | 70.13887 | 21.49403 | 7968 ft | 204 kts | 49° |
| 2026-04-25 16:06 | 70.14767 | 21.52702 | 7966 ft | 205 kts | 49° |
| 2026-04-25 16:07 | 70.15646 | 21.56010 | 7966 ft | 206 kts | 49° |
| 2026-04-25 16:07 | 70.16230 | 21.58207 | 7966 ft | 206 kts | 49° |
| 2026-04-25 16:07 | 70.17408 | 21.62644 | 7963 ft | 205 kts | 49° |
| 2026-04-25 16:07 | 70.18283 | 21.65948 | 7963 ft | 204 kts | 49° |
| 2026-04-25 16:08 | 70.19157 | 21.69254 | 7973 ft | 204 kts | 49° |
| 2026-04-25 16:08 | 70.20032 | 21.72567 | 7975 ft | 205 kts | 49° |
| 2026-04-25 16:08 | 70.20907 | 21.75883 | 7975 ft | 203 kts | 49° |
| 2026-04-25 16:08 | 70.21771 | 21.79169 | 7976 ft | 202 kts | 49° |
| 2026-04-25 16:09 | 70.22632 | 21.82440 | 7971 ft | 202 kts | 49° |
| 2026-04-25 16:09 | 70.23493 | 21.85717 | 7978 ft | 203 kts | 50° |
| 2026-04-25 16:09 | 70.24353 | 21.88999 | 7969 ft | 201 kts | 50° |
| 2026-04-25 16:09 | 70.25208 | 21.92267 | 7969 ft | 200 kts | 50° |
| 2026-04-25 16:10 | 70.26053 | 21.95504 | 7964 ft | 197 kts | 50° |
| 2026-04-25 16:10 | 70.26874 | 21.98649 | 7966 ft | 195 kts | 50° |
| 2026-04-25 16:10 | 70.27697 | 22.01809 | 7958 ft | 193 kts | 50° |
| 2026-04-25 16:10 | 70.28518 | 22.04962 | 7959 ft | 193 kts | 50° |
| 2026-04-25 16:11 | 70.29333 | 22.08096 | 7962 ft | 192 kts | 50° |
| 2026-04-25 16:11 | 70.30145 | 22.11226 | 7962 ft | 191 kts | 50° |
| 2026-04-25 16:11 | 70.30955 | 22.14358 | 7964 ft | 191 kts | 50° |
| 2026-04-25 16:11 | 70.31767 | 22.17494 | 7965 ft | 191 kts | 50° |
| 2026-04-25 16:12 | 70.32576 | 22.20630 | 7964 ft | 191 kts | 50° |
| 2026-04-25 16:12 | 70.33384 | 22.23759 | 7960 ft | 191 kts | 50° |
| 2026-04-25 16:12 | 70.34196 | 22.26917 | 7960 ft | 191 kts | 50° |
| 2026-04-25 16:12 | 70.34730 | 22.28994 | 7960 ft | 191 kts | 50° |
| 2026-04-25 16:13 | 70.35799 | 22.33155 | 7967 ft | 191 kts | 50° |
| 2026-04-25 16:13 | 70.36605 | 22.36297 | 7965 ft | 191 kts | 50° |
| 2026-04-25 16:13 | 70.37409 | 22.39439 | 7964 ft | 191 kts | 50° |
| 2026-04-25 16:13 | 70.38215 | 22.42591 | 7845 ft | 192 kts | 50° |
| 2026-04-25 16:14 | 70.39013 | 22.45725 | 7563 ft | 188 kts | 50° |
| 2026-04-25 16:14 | 70.39803 | 22.48818 | 7276 ft | 187 kts | 50° |
| 2026-04-25 16:14 | 70.40589 | 22.51906 | 6989 ft | 187 kts | 50° |
| 2026-04-25 16:14 | 70.41378 | 22.55008 | 6712 ft | 188 kts | 50° |
| 2026-04-25 16:15 | 70.42166 | 22.58114 | 6442 ft | 188 kts | 50° |
| 2026-04-25 16:15 | 70.42956 | 22.61236 | 6172 ft | 189 kts | 50° |
| 2026-04-25 16:15 | 70.43748 | 22.64360 | 5908 ft | 189 kts | 50° |
| 2026-04-25 16:15 | 70.44538 | 22.67488 | 5630 ft | 189 kts | 50° |
| 2026-04-25 16:16 | 70.45329 | 22.70626 | 5358 ft | 189 kts | 51° |
| 2026-04-25 16:16 | 70.46120 | 22.73764 | 5091 ft | 189 kts | 51° |
| 2026-04-25 16:16 | 70.46906 | 22.76890 | 4825 ft | 190 kts | 50° |
| 2026-04-25 16:16 | 70.47708 | 22.80077 | 4563 ft | 192 kts | 51° |
| 2026-04-25 16:17 | 70.48514 | 22.83296 | 4308 ft | 194 kts | 52° |
| 2026-04-25 16:17 | 70.49312 | 22.86488 | 4065 ft | 193 kts | 52° |
| 2026-04-25 16:17 | 70.50119 | 22.89716 | 3803 ft | 194 kts | 52° |
| 2026-04-25 16:17 | 70.50918 | 22.92913 | 3710 ft | 188 kts | 52° |
| 2026-04-25 16:18 | 70.51689 | 22.96003 | 3705 ft | 183 kts | 52° |
| 2026-04-25 16:18 | 70.51946 | 22.97033 | 3702 ft | 182 kts | 52° |
| 2026-04-25 16:18 | 70.53202 | 23.02081 | 3701 ft | 181 kts | 52° |
| 2026-04-25 16:18 | 70.53931 | 23.05154 | 3697 ft | 181 kts | 57° |
| 2026-04-25 16:19 | 70.54632 | 23.08289 | 3698 ft | 180 kts | 53° |
| 2026-04-25 16:19 | 70.55364 | 23.11342 | 3698 ft | 180 kts | 53° |
| 2026-04-25 16:19 | 70.56081 | 23.14434 | 3698 ft | 181 kts | 54° |
| 2026-04-25 16:20 | 70.57507 | 23.20668 | 3699 ft | 181 kts | 55° |
| 2026-04-25 16:20 | 70.58217 | 23.23783 | 3699 ft | 181 kts | 54° |
| 2026-04-25 16:20 | 70.59674 | 23.30174 | 3332 ft | 191 kts | 54° |
| 2026-04-25 16:21 | 70.60425 | 23.33474 | 3142 ft | 192 kts | 55° |
| 2026-04-25 16:21 | 70.61179 | 23.36794 | 2949 ft | 192 kts | 55° |
| 2026-04-25 16:21 | 70.61921 | 23.40072 | 2910 ft | 187 kts | 55° |
| 2026-04-25 16:21 | 70.62655 | 23.43307 | 2756 ft | 191 kts | 55° |
| 2026-04-25 16:22 | 70.63278 | 23.46894 | 2422 ft | 195 kts | 70° |
| 2026-04-25 16:22 | 70.63698 | 23.50789 | 2113 ft | 195 kts | 71° |
| 2026-04-25 16:22 | 70.64088 | 23.54691 | 1792 ft | 194 kts | 72° |
| 2026-04-25 16:22 | 70.64527 | 23.58422 | 1727 ft | 180 kts | 63° |
| 2026-04-25 16:23 | 70.65071 | 23.61466 | 1697 ft | 154 kts | 60° |
| 2026-04-25 16:23 | 70.65546 | 23.64204 | 1776 ft | 142 kts | 62° |
| 2026-04-25 16:23 | 70.65989 | 23.66829 | 1788 ft | 136 kts | 62° |
| 2026-04-25 16:23 | 70.66468 | 23.68965 | 1704 ft | 112 kts | 46° |
| 2026-04-25 16:24 | 70.66998 | 23.70534 | 1493 ft | 108 kts | 39° |
| 2026-04-25 16:24 | 70.67596 | 23.71908 | 1277 ft | 107 kts | 33° |
| 2026-04-25 16:24 | 70.68262 | 23.72747 | 1067 ft | 105 kts | 356° |
| 2026-04-25 16:24 | 70.68856 | 23.71730 | 842 ft | 99 kts | 294° |
| 2026-04-25 16:25 | 70.68708 | 23.69875 | 600 ft | 99 kts | 222° |
| 2026-04-25 16:25 | 70.68412 | 23.68856 | 437 ft | 96 kts | 233° |
| 2026-04-25 16:25 | 70.67923 | 23.66672 | 253 ft | 83 kts | 234° |
| 2026-04-25 16:25 | 70.67748 | 23.65949 | 265 ft | 16 kts | 223° |
| 2026-04-25 16:26 | 70.67777 | 23.65952 | 265 ft | 7 kts | 75° |
| 2026-04-25 16:26 | 70.67795 | 23.66066 | 263 ft | 13 kts | 60° |
| 2026-04-25 16:26 | 70.67865 | 23.66412 | 257 ft | 18 kts | 57° |
| 2026-04-25 16:26 | 70.67973 | 23.66905 | 253 ft | 39 kts | 56° |
| 2026-04-25 16:27 | 70.68092 | 23.67457 | 258 ft | 13 kts | 83° |
| 2026-04-25 16:27 | 70.68057 | 23.67647 | 257 ft | 7 kts | 64° |
| 2026-04-25 16:27 | 70.68098 | 23.67833 | 259 ft | 12 kts | 54° |
| 2026-04-25 16:27 | 70.68129 | 23.67974 | 259 ft | 7 kts | 83° |
| 2026-04-25 16:28 | 70.68105 | 23.68028 | 259 ft | 3 kts | 226° |
| 2026-04-25 16:28 | 70.68104 | 23.67992 | 259 ft | 0 kts | 328° |